Terminal Aerodrome Forecast
Issued by NWS Jackson, MS

Home | Current Version | Previous Version | Text Only | Print | Product List | Glossary On
Versions: 1 2 3 4 5 6 7 8 9 10 11 12 13 14
000
FTUS44 KJAN 300520
TAFJAN
TAF
KJAN 300520Z 3006/3106 19009KT P6SM OVC035
     FM301200 20008KT P6SM VCSH BKN020 OVC050
     FM301300 22010KT 5SM -RA BR OVC015
     FM301500 28008KT P6SM VCSH SCT025 BKN035
     FM301700 32005KT P6SM BKN050=

USA.gov is the U.S. government's official web portal to all federal, state and local government web resources and services.